This is the latest recevied weather packets stored in our database for station/object OE-11073. If no packets are shown the sender has not sent any weather packets the latest 10 day(s).
| Time | Temp. | Humidity | Pressure | Rain* | Wind** | Luminosity | Snow |
|---|---|---|---|---|---|---|---|
| 1788403511 | 13.89° C | 85% | - | 0 mm | - | 0 W/m² | - |
| 1788402911 | 13.89° C | 86% | - | 0 mm | - | 0 W/m² | - |
| 1788402311 | 13.33° C | 88% | - | 0 mm | - | 0 W/m² | - |
| 1788401484 | 13.89° C | 85% | - | 0 mm | - | 0 W/m² | - |
| 1788400511 | 13.89° C | 89% | - | 0 mm | - | 0 W/m² | - |
| 1788380711 | 16.67° C | 79% | - | 0 mm | - | 0 W/m² | - |
| 1788379511 | 17.22° C | 76% | - | 0 mm | - | 0 W/m² | - |
| 1788377711 | 17.78° C | 71% | - | 0 mm | - | 0 W/m² | - |
| 1788377111 | 18.33° C | 68% | - | 0 mm | - | 0 W/m² | - |
| 1788376284 | 19.44° C | 60% | - | 0 mm | - | 0 W/m² | - |
| 1788375911 | 19.44° C | 62% | - | 0 mm | - | 0 W/m² | - |
| 1788374485 | 20° C | 59% | - | 0 mm | - | 0 W/m² | - |
| 1788374111 | 20.56° C | 55% | - | 0 mm | - | 0 W/m² | - |
| 1788373511 | 21.11° C | 54% | - | 0 mm | - | 0 W/m² | - |
| 1788372684 | 20.56° C | 58% | - | 0 mm | - | 0 W/m² | - |
| 1788371711 | 20.56° C | 61% | - | 0 mm | - | 8 W/m² | - |
| 1788370510 | 21.67° C | 55% | - | 0 mm | - | 38 W/m² | - |
| 1788369911 | 21.67° C | 56% | - | 0 mm | - | 92 W/m² | - |
| 1788366911 | 22.22° C | 56% | - | 0 mm | - | 130 W/m² | - |
| 1788365484 | 23.89° C | 45% | - | 0 mm | - | 260 W/m² | - |
| 1788365111 | 23.89° C | 47% | - | 0 mm | - | 291 W/m² | - |
| 1788364511 | 23.89° C | 45% | - | 0 mm | - | 306 W/m² | - |
| 1788363311 | 24.44° C | 44% | - | 0 mm | - | 337 W/m² | - |
| 1788361884 | 25.56° C | 42% | - | 0 mm | - | 436 W/m² | - |
| 1788361511 | 25° C | 39% | - | 0 mm | - | 459 W/m² | - |
* Rain latest hour (hover to see other rain measurements)
** Current wind speed in m/s (hover to see current wind gust speed)